Castlegar/West Kootenay Regional Airport


Codes: CYCG/YCG
Name: Castlegar/West Kootenay Regional Airport
City: Castlegar
Country: Canada
Elevation: 1624 ft.
Wikipedia:

Photos at Castlegar/West Kootenay Regional Airport


   Photos courtesy of SpottingLog. You can add your own sightings and photos by signing up for a free trial today.



No photos found.

Weather at Castlegar/West Kootenay Regional Airport


Time (UTC)DescriptionTempratureWindCloud coverageVisibilityPressureHumidity
21-Jun-2024 12:00Clear Sky11°C4 mph, N0%10000m1019hPa78%
21-Jun-2024 15:00Clear Sky14°C4 mph, N0%10000m1018hPa68%
21-Jun-2024 18:00Clear Sky22°C0 mph, SE0%10000m1015hPa43%
21-Jun-2024 21:00Broken Clouds29°C4 mph, S54%10000m1011hPa22%
22-Jun-2024 00:00Broken Clouds28°C2 mph, S63%10000m1010hPa22%
22-Jun-2024 03:00Broken Clouds22°C0 mph, W70%10000m1011hPa48%
22-Jun-2024 06:00Scattered Clouds15°C2 mph, N46%10000m1013hPa59%
22-Jun-2024 09:00Scattered Clouds14°C2 mph, N41%10000m1014hPa63%
22-Jun-2024 12:00Broken Clouds12°C4 mph, N60%10000m1014hPa67%
22-Jun-2024 15:00Overcast Clouds21°C0 mph, E89%10000m1012hPa45%
22-Jun-2024 18:00Broken Clouds27°C4 mph, S81%10000m1010hPa27%
22-Jun-2024 21:00Broken Clouds30°C9 mph, SW72%10000m1008hPa24%
23-Jun-2024 00:00Broken Clouds30°C7 mph, S77%10000m1005hPa24%
23-Jun-2024 03:00Broken Clouds24°C4 mph, S54%10000m1005hPa51%
23-Jun-2024 06:00Scattered Clouds18°C2 mph, NE38%10000m1006hPa64%
23-Jun-2024 09:00Clear Sky15°C2 mph, N5%10000m1005hPa72%
23-Jun-2024 12:00Clear Sky14°C2 mph, SW3%10000m1005hPa77%
23-Jun-2024 15:00Clear Sky20°C4 mph, S9%10000m1005hPa56%
23-Jun-2024 18:00Clear Sky24°C7 mph, S5%10000m1005hPa36%
23-Jun-2024 21:00Few Clouds27°C9 mph, S14%10000m1003hPa24%
24-Jun-2024 00:00Scattered Clouds27°C13 mph, S26%10000m1000hPa22%
24-Jun-2024 03:00Broken Clouds21°C2 mph, SW84%10000m1002hPa47%
24-Jun-2024 06:00Broken Clouds13°C4 mph, NW62%10000m1006hPa69%
24-Jun-2024 09:00Clear Sky10°C4 mph, NW0%10000m1009hPa73%
24-Jun-2024 12:00Clear Sky8°C4 mph, NW0%10000m1013hPa78%
24-Jun-2024 15:00Clear Sky16°C2 mph, W6%10000m1012hPa49%
24-Jun-2024 18:00Scattered Clouds21°C4 mph, SW25%10000m1012hPa36%
24-Jun-2024 21:00Scattered Clouds24°C7 mph, NW35%10000m1010hPa26%
25-Jun-2024 00:00Few Clouds24°C4 mph, NW20%10000m1010hPa28%
25-Jun-2024 03:00Clear Sky20°C2 mph, NW7%10000m1011hPa50%
25-Jun-2024 06:00Broken Clouds15°C4 mph, N52%10000m1014hPa63%
25-Jun-2024 09:00Overcast Clouds13°C2 mph, N100%10000m1015hPa70%
25-Jun-2024 12:00Broken Clouds11°C4 mph, N58%10000m1017hPa79%
25-Jun-2024 15:00Broken Clouds19°C2 mph, E72%10000m1015hPa51%
25-Jun-2024 18:00Broken Clouds25°C4 mph, S78%10000m1013hPa31%
25-Jun-2024 21:00Few Clouds28°C7 mph, S13%10000m1011hPa27%
26-Jun-2024 00:00Scattered Clouds28°C7 mph, S27%10000m1010hPa28%
26-Jun-2024 03:00Broken Clouds23°C2 mph, S55%10000m1010hPa53%
26-Jun-2024 06:00Scattered Clouds16°C2 mph, N31%10000m1013hPa68%
26-Jun-2024 09:00Clear Sky14°C2 mph, N6%10000m1014hPa76%